createdAt,value
2023-02-27T00:00:55.534Z,1.50
2023-02-27T00:03:23.856Z,1.40
2023-02-27T00:05:51.891Z,1.50
2023-02-27T00:08:19.998Z,1.40
2023-02-27T00:10:48.043Z,1.40
2023-02-27T00:13:16.083Z,1.40
2023-02-27T00:15:48.357Z,1.10
2023-02-27T00:18:16.423Z,1.20
2023-02-27T00:20:44.518Z,1.30
2023-02-27T00:23:12.569Z,1.40
2023-02-27T00:25:40.682Z,1.40
2023-02-27T00:28:08.779Z,1.30
2023-02-27T00:30:36.790Z,1.20
2023-02-27T00:33:06.823Z,1.40
2023-02-27T00:35:34.897Z,1.30
2023-02-27T00:38:03.030Z,1.30
2023-02-27T00:40:31.094Z,1.30
2023-02-27T00:42:59.226Z,1.20
2023-02-27T00:45:27.275Z,1.20
2023-02-27T00:47:55.388Z,1.30
2023-02-27T00:50:25.100Z,1.40
2023-02-27T00:52:53.486Z,1.30
2023-02-27T00:55:22.618Z,1.20
2023-02-27T00:57:50.685Z,1.10
2023-02-27T01:00:19.517Z,1.00
2023-02-27T01:02:47.637Z,1.00
2023-02-27T01:05:15.706Z,1.10
2023-02-27T01:07:45.178Z,1.10
2023-02-27T01:10:14.356Z,1.20
2023-02-27T01:12:42.403Z,1.20
2023-02-27T01:15:12.209Z,1.00
2023-02-27T01:17:40.657Z,0.80
2023-02-27T01:20:10.416Z,0.90
2023-02-27T01:22:38.771Z,0.90
2023-02-27T01:25:09.050Z,0.90
2023-02-27T01:27:40.758Z,1.00
2023-02-27T01:30:11.402Z,0.90
2023-02-27T01:32:39.674Z,1.00
2023-02-27T01:35:08.704Z,1.10
2023-02-27T01:37:36.776Z,1.20
2023-02-27T01:40:07.917Z,1.10
2023-02-27T01:42:37.594Z,0.90
2023-02-27T01:45:28.649Z,0.80
2023-02-27T01:48:08.560Z,1.00
2023-02-27T01:50:39.539Z,0.50
2023-02-27T01:53:08.593Z,0.60
2023-02-27T01:55:39.834Z,0.60
2023-02-27T01:58:12.116Z,0.60
2023-02-27T02:00:41.057Z,0.60
2023-02-27T02:03:16.497Z,0.30
2023-02-27T02:05:46.894Z,0.10
2023-02-27T02:08:18.533Z,0.00
2023-02-27T02:10:49.270Z,-0.10
2023-02-27T02:13:20.468Z,0.10
2023-02-27T02:15:53.712Z,0.20
2023-02-27T02:18:27.137Z,-0.10
2023-02-27T02:21:28.654Z,-0.10
2023-02-27T02:24:45.572Z,0.10
2023-02-27T02:27:27.924Z,0.10
2023-02-27T02:30:34.325Z,-0.10
2023-02-27T02:33:38.159Z,0.00
2023-02-27T02:36:38.709Z,0.30
2023-02-27T02:39:23.171Z,0.40
2023-02-27T02:42:01.441Z,0.50
2023-02-27T02:44:39.409Z,0.50
2023-02-27T02:47:22.019Z,0.50
2023-02-27T02:49:56.760Z,0.70
2023-02-27T02:52:33.485Z,0.50
2023-02-27T02:55:09.467Z,0.30
2023-02-27T02:57:42.025Z,0.30
2023-02-27T03:00:16.305Z,0.30
2023-02-27T03:02:49.137Z,0.30
2023-02-27T03:05:23.567Z,0.30
2023-02-27T03:07:57.354Z,0.10
2023-02-27T03:10:30.927Z,0.20
2023-02-27T03:13:02.942Z,0.10
2023-02-27T03:15:35.985Z,-0.10
2023-02-27T03:18:08.436Z,-0.20
2023-02-27T03:20:40.488Z,-0.20
2023-02-27T03:23:22.343Z,-0.20
2023-02-27T03:25:52.488Z,-0.40
2023-02-27T03:28:25.320Z,-0.10
2023-02-27T03:31:02.153Z,0.10
2023-02-27T03:33:33.814Z,0.20
2023-02-27T03:36:13.123Z,0.20
2023-02-27T03:38:46.056Z,0.20
2023-02-27T03:41:22.960Z,0.30
2023-02-27T03:44:06.695Z,0.20
2023-02-27T03:46:37.067Z,0.40
2023-02-27T03:49:06.262Z,0.40
2023-02-27T03:51:35.726Z,0.20
2023-02-27T03:54:09.758Z,0.40
2023-02-27T03:56:42.386Z,0.30
2023-02-27T03:59:10.786Z,0.30
2023-02-27T04:01:44.515Z,0.40
2023-02-27T04:04:15.190Z,0.40
2023-02-27T04:07:25.055Z,0.40
2023-02-27T04:10:20.772Z,0.30
2023-02-27T04:13:18.448Z,0.40
2023-02-27T04:16:17.120Z,0.30
2023-02-27T04:19:00.506Z,0.30
2023-02-27T04:21:35.929Z,0.30
2023-02-27T04:24:10.833Z,0.40
2023-02-27T04:26:43.388Z,0.20
2023-02-27T04:29:18.450Z,-0.20
2023-02-27T04:31:52.878Z,-0.50
2023-02-27T04:34:28.232Z,-0.50
2023-02-27T04:37:01.380Z,-0.60
2023-02-27T04:39:33.603Z,-0.40
2023-02-27T04:42:04.628Z,-0.40
2023-02-27T04:44:37.196Z,-0.20
2023-02-27T04:47:08.292Z,-0.30
2023-02-27T04:49:39.428Z,-0.60
2023-02-27T04:52:13.208Z,-0.50
2023-02-27T04:54:44.582Z,-0.70
2023-02-27T04:57:17.076Z,-0.80
2023-02-27T04:59:50.052Z,-0.70
2023-02-27T05:02:24.906Z,-0.60
2023-02-27T05:04:57.881Z,-0.40
2023-02-27T05:07:30.144Z,-0.10
2023-02-27T05:10:02.004Z,0.00
2023-02-27T05:12:34.674Z,0.20
2023-02-27T05:15:10.002Z,0.30
2023-02-27T05:17:43.537Z,0.40
2023-02-27T05:20:14.760Z,0.40
2023-02-27T05:22:48.674Z,0.40
2023-02-27T05:25:24.735Z,0.30
2023-02-27T05:27:56.101Z,0.30
2023-02-27T05:30:32.596Z,0.40
2023-02-27T05:33:06.710Z,0.40
2023-02-27T05:35:39.265Z,0.20
2023-02-27T05:38:12.793Z,0.10
2023-02-27T05:40:44.233Z,0.30
2023-02-27T05:43:17.277Z,0.20
2023-02-27T05:45:50.132Z,0.20
2023-02-27T05:48:22.144Z,0.30
2023-02-27T05:50:53.590Z,0.30
2023-02-27T05:53:25.340Z,0.50
2023-02-27T05:55:56.420Z,0.80
2023-02-27T05:58:31.299Z,0.40
2023-02-27T06:01:02.678Z,-0.20
2023-02-27T06:03:33.217Z,0.00
2023-02-27T06:06:03.762Z,-0.10
2023-02-27T06:08:31.912Z,-0.10
2023-02-27T06:10:59.964Z,0.10
2023-02-27T06:13:28.099Z,0.20
2023-02-27T06:15:56.269Z,0.40
2023-02-27T06:18:25.657Z,0.30
2023-02-27T06:20:53.693Z,0.20
2023-02-27T06:23:22.082Z,0.40
2023-02-27T06:25:50.240Z,0.70
2023-02-27T06:28:18.480Z,0.50
2023-02-27T06:30:46.665Z,0.50
2023-02-27T06:33:15.002Z,0.50
2023-02-27T06:35:45.232Z,0.50
2023-02-27T06:38:13.302Z,0.60
2023-02-27T06:40:41.373Z,0.60
2023-02-27T06:43:09.654Z,0.50
2023-02-27T06:45:37.879Z,0.30
2023-02-27T06:48:06.318Z,0.00
2023-02-27T06:50:34.384Z,-0.40
2023-02-27T06:53:04.316Z,0.00
2023-02-27T06:55:32.373Z,0.00
2023-02-27T06:58:00.364Z,-0.20
2023-02-27T07:00:29.310Z,-0.30
2023-02-27T07:02:57.437Z,-0.30
2023-02-27T07:05:26.044Z,-0.40
2023-02-27T07:07:54.158Z,-0.40
2023-02-27T07:10:23.553Z,-0.30
2023-02-27T07:12:52.000Z,-0.20
2023-02-27T07:15:20.182Z,-0.20
2023-02-27T07:17:48.226Z,-0.10
2023-02-27T07:20:16.333Z,0.00
2023-02-27T07:22:44.392Z,0.10
2023-02-27T07:25:12.472Z,0.20
2023-02-27T07:27:44.300Z,0.40
2023-02-27T07:30:13.632Z,0.40
2023-02-27T07:32:41.624Z,0.50
2023-02-27T07:35:11.858Z,0.50
2023-02-27T07:37:40.353Z,0.80
2023-02-27T07:40:09.964Z,0.90
2023-02-27T07:42:38.009Z,1.10
2023-02-27T07:45:09.053Z,1.20
2023-02-27T07:47:37.156Z,1.30
2023-02-27T07:50:05.551Z,1.50
2023-02-27T07:52:34.287Z,1.70
2023-02-27T07:55:02.337Z,1.70
2023-02-27T07:57:30.410Z,1.90
2023-02-27T07:59:58.412Z,2.10
2023-02-27T08:02:27.876Z,2.20
2023-02-27T08:04:55.992Z,2.30
2023-02-27T08:07:24.052Z,2.40
2023-02-27T08:09:52.117Z,2.50
2023-02-27T08:12:20.266Z,2.60
2023-02-27T08:14:48.297Z,2.70
2023-02-27T08:17:16.414Z,2.90
2023-02-27T08:19:45.811Z,3.00
2023-02-27T08:22:13.844Z,3.10
2023-02-27T08:24:42.261Z,3.30
2023-02-27T08:27:10.285Z,3.40
2023-02-27T08:29:38.389Z,3.60
2023-02-27T08:32:06.473Z,3.60
2023-02-27T08:34:34.526Z,3.60
2023-02-27T08:37:03.905Z,3.70
2023-02-27T08:39:31.956Z,3.90
2023-02-27T08:42:00.003Z,4.00
2023-02-27T08:44:28.082Z,4.00
2023-02-27T08:46:56.112Z,4.20
2023-02-27T08:49:25.303Z,4.20
2023-02-27T08:51:53.776Z,4.40
2023-02-27T08:54:23.160Z,4.60
2023-02-27T08:56:51.195Z,4.60
2023-02-27T08:59:19.257Z,4.70
2023-02-27T09:01:47.297Z,5.00
2023-02-27T09:04:16.173Z,5.40
2023-02-27T09:06:44.209Z,5.70
2023-02-27T09:09:12.249Z,5.90
2023-02-27T09:11:41.810Z,6.00
2023-02-27T09:14:09.858Z,5.90
2023-02-27T09:16:38.023Z,6.10
2023-02-27T09:19:06.268Z,6.20
2023-02-27T09:21:34.324Z,6.30
2023-02-27T09:24:17.196Z,6.40
2023-02-27T09:26:49.002Z,6.40
2023-02-27T09:29:17.561Z,6.80
2023-02-27T09:31:45.747Z,6.90
2023-02-27T09:34:13.866Z,7.20
2023-02-27T09:36:42.293Z,7.20
2023-02-27T09:39:11.133Z,7.40
2023-02-27T09:41:52.715Z,7.40
2023-02-27T09:44:44.837Z,7.50
2023-02-27T09:47:17.449Z,7.80
2023-02-27T09:49:55.168Z,8.30
2023-02-27T09:52:23.309Z,8.40
2023-02-27T09:54:51.505Z,8.30
2023-02-27T09:57:30.762Z,8.40
2023-02-27T10:00:04.841Z,8.60
2023-02-27T10:02:55.421Z,8.30
2023-02-27T10:05:31.618Z,8.10
2023-02-27T10:08:09.243Z,8.10
2023-02-27T10:10:44.668Z,8.10
2023-02-27T10:13:37.343Z,8.00
2023-02-27T10:16:07.488Z,8.20
2023-02-27T10:18:42.740Z,8.40
2023-02-27T10:21:17.996Z,8.70
2023-02-27T10:23:54.212Z,8.90
2023-02-27T10:26:26.369Z,8.90
2023-02-27T10:28:55.801Z,9.10
2023-02-27T10:31:27.171Z,9.20
2023-02-27T10:33:57.937Z,9.20
2023-02-27T10:36:34.041Z,9.40
2023-02-27T10:39:07.116Z,9.40
2023-02-27T10:41:37.340Z,9.60
2023-02-27T10:44:06.967Z,9.80
2023-02-27T10:46:38.122Z,9.90
2023-02-27T10:49:15.669Z,9.30
2023-02-27T10:51:46.909Z,9.00
2023-02-27T10:54:17.322Z,8.90
2023-02-27T10:56:48.718Z,8.70
2023-02-27T10:59:22.146Z,8.50
2023-02-27T11:01:53.113Z,8.40
2023-02-27T11:04:32.627Z,8.20
2023-02-27T11:07:03.808Z,8.10
2023-02-27T11:09:33.295Z,8.20
2023-02-27T11:12:21.856Z,8.20
2023-02-27T11:14:54.196Z,8.00
2023-02-27T11:17:28.805Z,8.00
2023-02-27T11:19:57.752Z,8.00
2023-02-27T11:22:28.298Z,8.00
2023-02-27T11:25:19.080Z,8.20
2023-02-27T11:27:47.687Z,8.10
2023-02-27T11:30:26.984Z,8.00
2023-02-27T11:32:57.745Z,8.10
2023-02-27T11:35:27.502Z,8.20
2023-02-27T11:37:57.833Z,8.30
2023-02-27T11:40:31.704Z,8.30
2023-02-27T11:43:04.922Z,8.40
2023-02-27T11:46:04.191Z,8.40
2023-02-27T11:48:28.991Z,8.30
2023-02-27T11:51:17.930Z,8.20
2023-02-27T11:54:11.316Z,7.90
2023-02-27T11:56:44.657Z,8.00
2023-02-27T11:59:27.453Z,8.10
2023-02-27T12:02:04.344Z,8.30
2023-02-27T12:04:44.747Z,8.40
2023-02-27T12:07:20.432Z,8.30
2023-02-27T12:09:57.654Z,8.30
2023-02-27T12:12:29.987Z,8.30
2023-02-27T12:15:05.980Z,8.20
2023-02-27T12:17:41.582Z,8.10
2023-02-27T12:20:26.301Z,8.10
2023-02-27T12:22:55.937Z,8.10
2023-02-27T12:25:43.005Z,8.20
2023-02-27T12:28:25.496Z,8.10
2023-02-27T12:31:05.400Z,8.00
2023-02-27T12:33:39.769Z,8.00
2023-02-27T12:36:12.233Z,8.10
2023-02-27T12:38:40.809Z,7.80
2023-02-27T12:41:28.615Z,7.90
2023-02-27T12:44:11.582Z,8.00
2023-02-27T12:46:49.675Z,8.00
2023-02-27T12:49:29.954Z,7.90
2023-02-27T12:52:10.807Z,7.80
2023-02-27T12:54:47.544Z,7.50
2023-02-27T12:57:32.773Z,7.50
2023-02-27T13:00:19.757Z,7.40
2023-02-27T13:02:55.382Z,7.40
2023-02-27T13:05:44.072Z,7.40
2023-02-27T13:08:39.914Z,7.40
2023-02-27T13:11:21.750Z,7.40
2023-02-27T13:13:54.584Z,7.40
2023-02-27T13:16:26.116Z,7.50
2023-02-27T13:18:57.637Z,7.50
2023-02-27T13:21:33.184Z,7.60
2023-02-27T13:24:17.953Z,7.50
2023-02-27T13:26:51.488Z,7.50
2023-02-27T13:29:22.692Z,7.50
2023-02-27T13:32:00.117Z,7.50
2023-02-27T13:34:34.639Z,7.50
2023-02-27T13:37:06.237Z,7.60
2023-02-27T13:40:01.253Z,7.60
2023-02-27T13:42:53.382Z,7.70
2023-02-27T13:45:51.533Z,7.60
2023-02-27T13:48:48.252Z,7.50
2023-02-27T13:51:59.481Z,7.60
2023-02-27T13:54:33.056Z,7.60
2023-02-27T13:57:19.838Z,7.70
2023-02-27T13:59:54.753Z,7.70
2023-02-27T14:02:57.906Z,7.80
2023-02-27T14:05:34.863Z,7.80
2023-02-27T14:08:15.349Z,7.50
2023-02-27T14:10:56.626Z,7.30
2023-02-27T14:14:00.743Z,7.30
2023-02-27T14:17:01.000Z,7.30
2023-02-27T14:19:57.115Z,7.20
2023-02-27T14:22:37.892Z,7.30
2023-02-27T14:25:19.653Z,7.20
2023-02-27T14:27:56.986Z,7.10
2023-02-27T14:30:36.378Z,7.00
2023-02-27T14:33:14.305Z,7.00
2023-02-27T14:35:46.861Z,7.00
2023-02-27T14:38:18.233Z,7.00
2023-02-27T14:41:19.831Z,7.00
2023-02-27T14:43:56.728Z,6.90
2023-02-27T14:46:29.370Z,6.80
2023-02-27T14:48:59.813Z,6.80
2023-02-27T14:51:30.434Z,6.80
2023-02-27T14:54:07.935Z,6.80
2023-02-27T14:56:36.150Z,7.00
2023-02-27T14:59:22.280Z,7.00
2023-02-27T15:01:51.100Z,7.00
2023-02-27T15:04:21.432Z,7.00
2023-02-27T15:06:52.146Z,7.00
2023-02-27T15:09:25.681Z,7.00
2023-02-27T15:12:03.402Z,7.00
2023-02-27T15:14:37.087Z,6.90
2023-02-27T15:17:16.160Z,6.80
2023-02-27T15:19:49.008Z,6.80
2023-02-27T15:22:36.219Z,6.80
2023-02-27T15:25:07.867Z,6.80
2023-02-27T15:27:38.708Z,6.80
2023-02-27T15:30:21.042Z,6.70
2023-02-27T15:32:49.622Z,6.60
2023-02-27T15:35:20.693Z,6.70
2023-02-27T15:37:54.394Z,6.60
2023-02-27T15:40:26.721Z,6.60
2023-02-27T15:42:56.599Z,6.60
2023-02-27T15:45:30.780Z,6.50
2023-02-27T15:47:59.117Z,6.50
2023-02-27T15:50:29.648Z,6.50
2023-02-27T15:53:04.395Z,6.60
2023-02-27T15:55:35.451Z,6.50
2023-02-27T15:58:03.993Z,6.50
2023-02-27T16:00:36.384Z,6.40
2023-02-27T16:03:06.498Z,6.30
2023-02-27T16:05:37.223Z,6.30
2023-02-27T16:08:06.784Z,6.30
2023-02-27T16:10:38.818Z,6.20
2023-02-27T16:13:30.436Z,6.30
2023-02-27T16:16:04.660Z,6.20
2023-02-27T16:18:35.416Z,6.10
2023-02-27T16:21:12.815Z,6.10
2023-02-27T16:23:41.161Z,6.10
2023-02-27T16:26:30.536Z,6.10
2023-02-27T16:29:02.460Z,6.10
2023-02-27T16:31:33.757Z,6.20
2023-02-27T16:34:04.176Z,6.10
2023-02-27T16:36:33.997Z,6.10
2023-02-27T16:39:02.220Z,6.00
2023-02-27T16:41:30.434Z,6.00
2023-02-27T16:43:58.829Z,5.90
2023-02-27T16:46:27.460Z,5.90
2023-02-27T16:49:17.658Z,6.00
2023-02-27T16:51:47.972Z,6.00
2023-02-27T16:54:16.624Z,5.90
2023-02-27T16:56:47.176Z,5.90
2023-02-27T16:59:29.151Z,5.90
2023-02-27T17:01:58.022Z,5.90
2023-02-27T17:04:28.599Z,5.80
2023-02-27T17:06:57.887Z,5.70
2023-02-27T17:09:28.285Z,5.80
2023-02-27T17:11:57.591Z,6.10
2023-02-27T17:14:26.365Z,6.00
2023-02-27T17:16:59.777Z,6.00
2023-02-27T17:19:29.267Z,6.00
2023-02-27T17:21:57.484Z,5.90
2023-02-27T17:24:25.671Z,6.00
2023-02-27T17:26:53.766Z,6.00
2023-02-27T17:29:21.986Z,6.00
2023-02-27T17:31:50.155Z,5.90
2023-02-27T17:34:18.754Z,6.00
2023-02-27T17:36:49.812Z,5.90
2023-02-27T17:39:17.981Z,6.00
2023-02-27T17:41:46.210Z,5.90
2023-02-27T17:44:15.046Z,6.00
2023-02-27T17:46:43.206Z,6.00
2023-02-27T17:49:11.472Z,5.80
2023-02-27T17:51:39.594Z,5.90
2023-02-27T17:54:09.238Z,6.00
2023-02-27T17:56:38.532Z,6.00
2023-02-27T17:59:07.718Z,6.00
2023-02-27T18:01:36.737Z,6.00
2023-02-27T18:04:06.988Z,5.80
2023-02-27T18:06:35.102Z,5.70
2023-02-27T18:09:03.218Z,5.70
2023-02-27T18:11:32.914Z,5.70
2023-02-27T18:14:01.079Z,5.70
2023-02-27T18:16:29.742Z,5.70
2023-02-27T18:18:58.466Z,5.80
2023-02-27T18:21:27.082Z,5.70
2023-02-27T18:23:56.198Z,5.60
2023-02-27T18:26:30.576Z,5.50
2023-02-27T18:29:04.385Z,5.50
2023-02-27T18:31:34.077Z,5.40
2023-02-27T18:34:02.224Z,5.40
2023-02-27T18:36:31.360Z,5.30
2023-02-27T18:38:59.873Z,5.30
2023-02-27T18:41:29.064Z,5.30
2023-02-27T18:43:58.312Z,5.30
2023-02-27T18:46:28.679Z,5.20
2023-02-27T18:48:57.703Z,5.10
2023-02-27T18:51:26.614Z,5.00
2023-02-27T18:53:55.012Z,5.10
2023-02-27T18:56:25.352Z,5.20
2023-02-27T18:58:53.904Z,5.20
2023-02-27T19:01:24.282Z,5.30
2023-02-27T19:03:56.225Z,5.30
2023-02-27T19:06:24.781Z,5.60
2023-02-27T19:08:53.031Z,5.70
2023-02-27T19:11:25.432Z,5.60
2023-02-27T19:13:53.541Z,5.50
2023-02-27T19:16:21.668Z,5.40
2023-02-27T19:18:49.793Z,5.80
2023-02-27T19:21:19.261Z,5.90
2023-02-27T19:23:47.291Z,6.10
2023-02-27T19:26:15.344Z,6.20
2023-02-27T19:28:43.400Z,6.20
2023-02-27T19:31:13.818Z,6.20
2023-02-27T19:33:42.089Z,6.00
2023-02-27T19:36:12.562Z,5.70
2023-02-27T19:38:42.238Z,5.40
2023-02-27T19:41:12.199Z,5.60
2023-02-27T19:43:41.922Z,5.70
2023-02-27T19:46:14.221Z,5.60
2023-02-27T19:48:43.255Z,5.30
2023-02-27T19:51:13.964Z,5.30
2023-02-27T19:53:46.087Z,5.50
2023-02-27T19:56:17.458Z,5.40
2023-02-27T19:58:46.480Z,5.20
2023-02-27T20:01:21.019Z,5.00
2023-02-27T20:03:49.618Z,4.80
2023-02-27T20:06:19.622Z,4.80
2023-02-27T20:08:49.309Z,4.70
2023-02-27T20:11:19.784Z,4.60
2023-02-27T20:13:48.755Z,4.60
2023-02-27T20:16:19.876Z,4.60
2023-02-27T20:18:48.847Z,4.60
2023-02-27T20:21:18.704Z,4.50
2023-02-27T20:23:48.966Z,4.60
2023-02-27T20:26:20.630Z,4.90
2023-02-27T20:28:51.006Z,4.90
2023-02-27T20:31:22.134Z,5.00
2023-02-27T20:33:51.046Z,5.20
2023-02-27T20:36:19.441Z,5.30
2023-02-27T20:38:50.558Z,5.20
2023-02-27T20:41:20.650Z,5.30
2023-02-27T20:43:49.284Z,5.60
2023-02-27T20:46:19.782Z,5.70
2023-02-27T20:48:48.306Z,5.60
2023-02-27T20:51:19.944Z,5.70
2023-02-27T20:53:51.999Z,5.60
2023-02-27T20:56:21.224Z,5.30
2023-02-27T20:58:50.180Z,5.20
2023-02-27T21:01:19.724Z,5.20
2023-02-27T21:03:50.825Z,5.00
2023-02-27T21:06:20.694Z,4.80
2023-02-27T21:08:54.846Z,4.70
2023-02-27T21:11:27.134Z,4.80
2023-02-27T21:13:56.710Z,5.00
2023-02-27T21:16:25.808Z,4.80
2023-02-27T21:18:56.756Z,4.70
2023-02-27T21:21:28.237Z,4.60
2023-02-27T21:24:01.797Z,4.60
2023-02-27T21:26:34.632Z,4.50
2023-02-27T21:29:06.394Z,4.50
2023-02-27T21:31:37.692Z,4.50
2023-02-27T21:34:10.044Z,4.40
2023-02-27T21:36:43.416Z,4.40
2023-02-27T21:39:15.328Z,4.40
2023-02-27T21:41:44.280Z,4.40
2023-02-27T21:44:14.540Z,4.50
2023-02-27T21:46:42.791Z,4.50
2023-02-27T21:49:16.312Z,4.40
2023-02-27T21:51:44.819Z,4.40
2023-02-27T21:54:14.980Z,4.40
2023-02-27T21:56:44.552Z,4.40
2023-02-27T21:59:13.525Z,4.40
2023-02-27T22:01:41.760Z,4.40
2023-02-27T22:04:09.796Z,4.40
2023-02-27T22:06:37.800Z,4.40
2023-02-27T22:09:07.954Z,4.40
2023-02-27T22:11:37.506Z,4.70
2023-02-27T22:14:08.003Z,5.00
2023-02-27T22:16:36.120Z,4.80
2023-02-27T22:19:07.618Z,4.70
2023-02-27T22:21:36.421Z,5.00
2023-02-27T22:24:04.984Z,5.10
2023-02-27T22:26:34.096Z,5.20
2023-02-27T22:29:04.878Z,5.20
2023-02-27T22:31:35.573Z,5.10
2023-02-27T22:34:05.845Z,4.80
2023-02-27T22:36:35.133Z,4.70
2023-02-27T22:39:06.624Z,5.20
2023-02-27T22:41:36.688Z,5.40
2023-02-27T22:44:06.926Z,5.30
2023-02-27T22:46:37.466Z,5.60
2023-02-27T22:49:09.264Z,5.60
2023-02-27T22:51:37.600Z,5.30
2023-02-27T22:54:07.222Z,5.00
2023-02-27T22:56:36.710Z,4.70
2023-02-27T22:59:06.920Z,4.60
2023-02-27T23:01:36.385Z,4.50
2023-02-27T23:04:06.609Z,4.40
2023-02-27T23:06:36.700Z,4.40
2023-02-27T23:09:06.230Z,4.40
2023-02-27T23:11:37.514Z,4.40
2023-02-27T23:14:08.340Z,4.50
2023-02-27T23:16:37.114Z,4.60
2023-02-27T23:19:05.900Z,4.50
2023-02-27T23:21:36.440Z,4.40
2023-02-27T23:24:07.316Z,4.40
2023-02-27T23:26:37.675Z,4.30
2023-02-27T23:29:07.993Z,4.30
2023-02-27T23:31:37.120Z,4.30
2023-02-27T23:34:06.598Z,4.30
2023-02-27T23:36:35.315Z,4.20
2023-02-27T23:39:04.219Z,4.20
2023-02-27T23:41:33.382Z,4.20
2023-02-27T23:44:01.588Z,4.20
2023-02-27T23:46:31.436Z,4.20
2023-02-27T23:48:59.877Z,4.20
2023-02-27T23:51:30.265Z,4.20
2023-02-27T23:53:58.927Z,4.20
2023-02-27T23:56:28.472Z,4.20
2023-02-27T23:58:58.818Z,4.20
